sensor_id;sensor_type;location;lat;lon;timestamp;P1;durP1;ratioP1;P2;durP2;ratioP2
36211;SDS011;22247;48.586;13.492;2023-07-22T00:00:45;6.13;;;2.38;;
36211;SDS011;22247;48.586;13.492;2023-07-22T00:03:13;14.27;;;2.33;;
36211;SDS011;22247;48.586;13.492;2023-07-22T00:08:03;6.45;;;2.38;;
36211;SDS011;22247;48.586;13.492;2023-07-22T00:12:52;4.03;;;2.13;;
36211;SDS011;22247;48.586;13.492;2023-07-22T00:17:44;5.07;;;2.10;;
36211;SDS011;22247;48.586;13.492;2023-07-22T00:22:38;4.90;;;2.10;;
36211;SDS011;22247;48.586;13.492;2023-07-22T00:25:10;5.35;;;2.22;;
36211;SDS011;22247;48.586;13.492;2023-07-22T00:27:35;7.15;;;2.00;;
36211;SDS011;22247;48.586;13.492;2023-07-22T00:32:24;5.00;;;2.27;;
36211;SDS011;22247;48.586;13.492;2023-07-22T00:34:49;9.93;;;2.20;;
36211;SDS011;22247;48.586;13.492;2023-07-22T00:37:18;3.33;;;2.20;;
36211;SDS011;22247;48.586;13.492;2023-07-22T00:39:42;8.10;;;2.00;;
36211;SDS011;22247;48.586;13.492;2023-07-22T00:44:32;4.57;;;2.42;;
36211;SDS011;22247;48.586;13.492;2023-07-22T00:49:21;4.90;;;2.45;;
36211;SDS011;22247;48.586;13.492;2023-07-22T00:51:47;8.05;;;2.28;;
36211;SDS011;22247;48.586;13.492;2023-07-22T00:56:39;7.68;;;2.00;;
36211;SDS011;22247;48.586;13.492;2023-07-22T00:59:05;4.57;;;2.17;;
36211;SDS011;22247;48.586;13.492;2023-07-22T01:03:54;6.10;;;1.92;;
36211;SDS011;22247;48.586;13.492;2023-07-22T01:08:46;4.13;;;2.42;;
36211;SDS011;22247;48.586;13.492;2023-07-22T01:11:12;3.70;;;2.10;;
36211;SDS011;22247;48.586;13.492;2023-07-22T01:13:38;7.05;;;2.33;;
36211;SDS011;22247;48.586;13.492;2023-07-22T01:16:03;6.15;;;2.22;;
36211;SDS011;22247;48.586;13.492;2023-07-22T01:20:52;3.33;;;2.03;;
36211;SDS011;22247;48.586;13.492;2023-07-22T01:25:42;9.73;;;2.10;;
36211;SDS011;22247;48.586;13.492;2023-07-22T01:28:10;5.90;;;2.55;;
36211;SDS011;22247;48.586;13.492;2023-07-22T01:30:35;3.80;;;1.90;;
36211;SDS011;22247;48.586;13.492;2023-07-22T01:35:24;4.22;;;2.55;;
36211;SDS011;22247;48.586;13.492;2023-07-22T01:37:50;6.55;;;1.90;;
36211;SDS011;22247;48.586;13.492;2023-07-22T01:42:40;3.60;;;1.83;;
36211;SDS011;22247;48.586;13.492;2023-07-22T01:45:07;14.68;;;2.63;;
36211;SDS011;22247;48.586;13.492;2023-07-22T01:47:35;5.55;;;2.40;;
36211;SDS011;22247;48.586;13.492;2023-07-22T01:50:01;4.85;;;2.10;;
36211;SDS011;22247;48.586;13.492;2023-07-22T01:52:30;3.20;;;2.13;;
36211;SDS011;22247;48.586;13.492;2023-07-22T01:57:19;7.70;;;2.00;;
36211;SDS011;22247;48.586;13.492;2023-07-22T02:02:08;4.75;;;1.98;;
36211;SDS011;22247;48.586;13.492;2023-07-22T02:06:57;3.97;;;2.03;;
36211;SDS011;22247;48.586;13.492;2023-07-22T02:11:47;5.75;;;2.25;;
36211;SDS011;22247;48.586;13.492;2023-07-22T02:14:12;6.82;;;2.38;;
36211;SDS011;22247;48.586;13.492;2023-07-22T02:19:01;7.78;;;2.55;;
36211;SDS011;22247;48.586;13.492;2023-07-22T02:23:54;4.63;;;1.75;;
36211;SDS011;22247;48.586;13.492;2023-07-22T02:28:43;7.35;;;2.55;;
36211;SDS011;22247;48.586;13.492;2023-07-22T02:31:12;5.43;;;2.83;;
36211;SDS011;22247;48.586;13.492;2023-07-22T02:36:03;6.25;;;2.15;;
36211;SDS011;22247;48.586;13.492;2023-07-22T02:40:53;6.38;;;2.53;;
36211;SDS011;22247;48.586;13.492;2023-07-22T02:43:17;8.13;;;2.45;;
36211;SDS011;22247;48.586;13.492;2023-07-22T02:45:42;4.22;;;2.53;;
36211;SDS011;22247;48.586;13.492;2023-07-22T02:50:34;5.45;;;2.85;;
36211;SDS011;22247;48.586;13.492;2023-07-22T02:55:23;7.33;;;2.80;;
36211;SDS011;22247;48.586;13.492;2023-07-22T02:57:48;6.72;;;2.55;;
36211;SDS011;22247;48.586;13.492;2023-07-22T03:00:13;9.25;;;2.50;;
36211;SDS011;22247;48.586;13.492;2023-07-22T03:02:52;5.22;;;2.67;;
36211;SDS011;22247;48.586;13.492;2023-07-22T03:05:20;3.63;;;2.67;;
36211;SDS011;22247;48.586;13.492;2023-07-22T03:07:47;10.30;;;3.35;;
36211;SDS011;22247;48.586;13.492;2023-07-22T03:10:12;10.25;;;3.20;;
36211;SDS011;22247;48.586;13.492;2023-07-22T03:15:04;5.57;;;2.47;;
36211;SDS011;22247;48.586;13.492;2023-07-22T03:17:32;6.57;;;2.95;;
36211;SDS011;22247;48.586;13.492;2023-07-22T03:22:21;5.68;;;2.88;;
36211;SDS011;22247;48.586;13.492;2023-07-22T03:27:18;8.07;;;3.20;;
36211;SDS011;22247;48.586;13.492;2023-07-22T03:32:10;5.55;;;2.90;;
36211;SDS011;22247;48.586;13.492;2023-07-22T03:40:16;6.47;;;2.60;;
36211;SDS011;22247;48.586;13.492;2023-07-22T03:42:48;9.18;;;2.90;;
36211;SDS011;22247;48.586;13.492;2023-07-22T03:45:17;11.25;;;2.92;;
36211;SDS011;22247;48.586;13.492;2023-07-22T03:47:43;8.90;;;2.83;;
36211;SDS011;22247;48.586;13.492;2023-07-22T03:50:08;7.10;;;3.08;;
36211;SDS011;22247;48.586;13.492;2023-07-22T03:54:58;3.95;;;2.60;;
36211;SDS011;22247;48.586;13.492;2023-07-22T03:57:31;8.55;;;2.80;;
36211;SDS011;22247;48.586;13.492;2023-07-22T03:59:56;5.35;;;2.90;;
36211;SDS011;22247;48.586;13.492;2023-07-22T04:02:21;5.07;;;3.17;;
36211;SDS011;22247;48.586;13.492;2023-07-22T04:07:15;4.30;;;2.50;;
36211;SDS011;22247;48.586;13.492;2023-07-22T04:09:40;5.85;;;2.92;;
36211;SDS011;22247;48.586;13.492;2023-07-22T04:12:27;5.95;;;2.45;;
36211;SDS011;22247;48.586;13.492;2023-07-22T04:14:52;4.90;;;2.72;;
36211;SDS011;22247;48.586;13.492;2023-07-22T04:19:51;6.38;;;2.92;;
36211;SDS011;22247;48.586;13.492;2023-07-22T04:26:18;7.28;;;3.85;;
36211;SDS011;22247;48.586;13.492;2023-07-22T04:35:16;5.78;;;3.28;;
36211;SDS011;22247;48.586;13.492;2023-07-22T04:37:41;5.22;;;2.97;;
36211;SDS011;22247;48.586;13.492;2023-07-22T04:40:08;6.00;;;4.07;;
36211;SDS011;22247;48.586;13.492;2023-07-22T04:42:42;10.40;;;3.38;;
36211;SDS011;22247;48.586;13.492;2023-07-22T04:45:10;6.00;;;3.28;;
36211;SDS011;22247;48.586;13.492;2023-07-22T04:50:00;8.10;;;3.37;;
36211;SDS011;22247;48.586;13.492;2023-07-22T04:54:49;8.27;;;3.38;;
36211;SDS011;22247;48.586;13.492;2023-07-22T04:57:17;6.50;;;3.40;;
36211;SDS011;22247;48.586;13.492;2023-07-22T05:02:09;9.05;;;3.53;;
36211;SDS011;22247;48.586;13.492;2023-07-22T05:04:33;8.65;;;3.70;;
36211;SDS011;22247;48.586;13.492;2023-07-22T05:06:58;8.98;;;3.50;;
36211;SDS011;22247;48.586;13.492;2023-07-22T05:11:48;5.13;;;3.50;;
36211;SDS011;22247;48.586;13.492;2023-07-22T05:16:37;6.40;;;3.03;;
36211;SDS011;22247;48.586;13.492;2023-07-22T05:19:04;14.52;;;3.55;;
36211;SDS011;22247;48.586;13.492;2023-07-22T05:21:29;6.60;;;3.20;;
36211;SDS011;22247;48.586;13.492;2023-07-22T05:23:58;5.20;;;3.20;;
36211;SDS011;22247;48.586;13.492;2023-07-22T05:26:25;4.00;;;2.58;;
36211;SDS011;22247;48.586;13.492;2023-07-22T05:28:50;5.68;;;3.00;;
36211;SDS011;22247;48.586;13.492;2023-07-22T05:33:40;4.55;;;2.53;;
36211;SDS011;22247;48.586;13.492;2023-07-22T05:38:29;4.63;;;2.90;;
36211;SDS011;22247;48.586;13.492;2023-07-22T05:40:56;3.90;;;2.70;;
36211;SDS011;22247;48.586;13.492;2023-07-22T05:45:46;3.70;;;2.20;;
36211;SDS011;22247;48.586;13.492;2023-07-22T05:50:37;4.28;;;2.55;;
36211;SDS011;22247;48.586;13.492;2023-07-22T05:55:26;8.65;;;2.65;;
36211;SDS011;22247;48.586;13.492;2023-07-22T05:57:57;5.30;;;2.65;;
36211;SDS011;22247;48.586;13.492;2023-07-22T06:00:22;4.70;;;2.45;;
36211;SDS011;22247;48.586;13.492;2023-07-22T06:05:12;5.57;;;2.50;;
36211;SDS011;22247;48.586;13.492;2023-07-22T06:07:37;3.55;;;2.15;;
36211;SDS011;22247;48.586;13.492;2023-07-22T06:10:04;3.72;;;2.42;;
36211;SDS011;22247;48.586;13.492;2023-07-22T06:12:30;4.38;;;2.30;;
36211;SDS011;22247;48.586;13.492;2023-07-22T06:14:57;4.30;;;2.10;;
36211;SDS011;22247;48.586;13.492;2023-07-22T06:17:22;4.50;;;2.75;;
36211;SDS011;22247;48.586;13.492;2023-07-22T06:19:46;5.93;;;2.90;;
36211;SDS011;22247;48.586;13.492;2023-07-22T06:22:11;8.45;;;3.20;;
36211;SDS011;22247;48.586;13.492;2023-07-22T06:24:40;5.22;;;2.72;;
36211;SDS011;22247;48.586;13.492;2023-07-22T06:27:05;6.45;;;2.70;;
36211;SDS011;22247;48.586;13.492;2023-07-22T06:29:32;6.18;;;2.30;;
36211;SDS011;22247;48.586;13.492;2023-07-22T06:31:57;8.95;;;2.75;;
36211;SDS011;22247;48.586;13.492;2023-07-22T06:34:22;6.03;;;2.67;;
36211;SDS011;22247;48.586;13.492;2023-07-22T06:36:46;6.25;;;2.50;;
36211;SDS011;22247;48.586;13.492;2023-07-22T06:39:14;6.50;;;2.45;;
36211;SDS011;22247;48.586;13.492;2023-07-22T06:41:38;7.07;;;2.72;;
36211;SDS011;22247;48.586;13.492;2023-07-22T06:44:03;7.43;;;2.65;;
36211;SDS011;22247;48.586;13.492;2023-07-22T06:46:28;7.68;;;2.78;;
36211;SDS011;22247;48.586;13.492;2023-07-22T06:48:55;4.88;;;2.67;;
36211;SDS011;22247;48.586;13.492;2023-07-22T06:51:20;4.85;;;2.38;;
36211;SDS011;22247;48.586;13.492;2023-07-22T06:53:45;4.35;;;2.50;;
36211;SDS011;22247;48.586;13.492;2023-07-22T06:56:10;6.00;;;2.35;;
36211;SDS011;22247;48.586;13.492;2023-07-22T06:58:37;5.43;;;2.60;;
36211;SDS011;22247;48.586;13.492;2023-07-22T07:01:04;8.05;;;2.65;;
36211;SDS011;22247;48.586;13.492;2023-07-22T07:03:28;6.13;;;2.90;;
36211;SDS011;22247;48.586;13.492;2023-07-22T07:05:57;5.53;;;2.40;;
36211;SDS011;22247;48.586;13.492;2023-07-22T07:08:22;13.18;;;2.67;;
36211;SDS011;22247;48.586;13.492;2023-07-22T07:10:47;6.63;;;2.80;;
36211;SDS011;22247;48.586;13.492;2023-07-22T07:13:14;6.65;;;2.72;;
36211;SDS011;22247;48.586;13.492;2023-07-22T07:15:39;5.10;;;3.17;;
36211;SDS011;22247;48.586;13.492;2023-07-22T07:18:04;5.70;;;2.90;;
36211;SDS011;22247;48.586;13.492;2023-07-22T07:20:29;8.15;;;2.88;;
36211;SDS011;22247;48.586;13.492;2023-07-22T07:22:54;6.07;;;3.47;;
36211;SDS011;22247;48.586;13.492;2023-07-22T07:25:21;5.43;;;2.45;;
36211;SDS011;22247;48.586;13.492;2023-07-22T07:27:46;5.47;;;3.22;;
36211;SDS011;22247;48.586;13.492;2023-07-22T07:30:12;5.30;;;3.03;;
36211;SDS011;22247;48.586;13.492;2023-07-22T07:32:42;4.72;;;2.72;;
36211;SDS011;22247;48.586;13.492;2023-07-22T07:35:07;4.75;;;2.92;;
36211;SDS011;22247;48.586;13.492;2023-07-22T07:37:35;6.28;;;2.85;;
36211;SDS011;22247;48.586;13.492;2023-07-22T07:40:00;4.72;;;2.38;;
36211;SDS011;22247;48.586;13.492;2023-07-22T07:42:28;6.72;;;3.17;;
36211;SDS011;22247;48.586;13.492;2023-07-22T07:44:52;12.02;;;3.00;;
36211;SDS011;22247;48.586;13.492;2023-07-22T07:47:17;7.30;;;2.72;;
36211;SDS011;22247;48.586;13.492;2023-07-22T07:49:42;3.63;;;2.65;;
36211;SDS011;22247;48.586;13.492;2023-07-22T07:52:13;4.57;;;2.45;;
36211;SDS011;22247;48.586;13.492;2023-07-22T07:54:56;4.45;;;2.40;;
36211;SDS011;22247;48.586;13.492;2023-07-22T07:57:21;11.85;;;2.78;;
36211;SDS011;22247;48.586;13.492;2023-07-22T07:59:45;6.32;;;2.92;;
36211;SDS011;22247;48.586;13.492;2023-07-22T08:02:10;4.82;;;2.65;;
36211;SDS011;22247;48.586;13.492;2023-07-22T08:04:35;3.92;;;2.55;;
36211;SDS011;22247;48.586;13.492;2023-07-22T08:12:47;6.68;;;2.40;;
36211;SDS011;22247;48.586;13.492;2023-07-22T08:15:15;3.40;;;2.05;;
36211;SDS011;22247;48.586;13.492;2023-07-22T08:17:40;5.97;;;2.22;;
36211;SDS011;22247;48.586;13.492;2023-07-22T08:20:06;4.05;;;2.50;;
36211;SDS011;22247;48.586;13.492;2023-07-22T08:22:32;12.35;;;2.58;;
36211;SDS011;22247;48.586;13.492;2023-07-22T08:24:57;7.43;;;2.80;;
36211;SDS011;22247;48.586;13.492;2023-07-22T08:27:25;4.05;;;2.40;;
36211;SDS011;22247;48.586;13.492;2023-07-22T08:29:50;4.45;;;2.45;;
36211;SDS011;22247;48.586;13.492;2023-07-22T08:32:15;5.20;;;2.28;;
36211;SDS011;22247;48.586;13.492;2023-07-22T08:34:43;8.07;;;2.40;;
36211;SDS011;22247;48.586;13.492;2023-07-22T08:37:08;5.55;;;2.05;;
36211;SDS011;22247;48.586;13.492;2023-07-22T08:39:33;4.53;;;2.20;;
36211;SDS011;22247;48.586;13.492;2023-07-22T08:41:58;3.40;;;2.00;;
36211;SDS011;22247;48.586;13.492;2023-07-22T08:44:28;3.50;;;2.00;;
36211;SDS011;22247;48.586;13.492;2023-07-22T08:46:57;4.80;;;2.60;;
36211;SDS011;22247;48.586;13.492;2023-07-22T08:49:23;3.40;;;1.95;;
36211;SDS011;22247;48.586;13.492;2023-07-22T08:51:48;4.85;;;1.95;;
36211;SDS011;22247;48.586;13.492;2023-07-22T08:54:13;5.68;;;2.00;;
36211;SDS011;22247;48.586;13.492;2023-07-22T08:56:39;3.63;;;1.85;;
36211;SDS011;22247;48.586;13.492;2023-07-22T08:59:05;5.75;;;2.00;;
36211;SDS011;22247;48.586;13.492;2023-07-22T09:01:31;3.20;;;1.83;;
36211;SDS011;22247;48.586;13.492;2023-07-22T09:03:56;3.60;;;1.88;;
36211;SDS011;22247;48.586;13.492;2023-07-22T09:06:22;6.13;;;2.65;;
36211;SDS011;22247;48.586;13.492;2023-07-22T09:08:47;6.90;;;2.25;;
36211;SDS011;22247;48.586;13.492;2023-07-22T09:11:12;3.55;;;1.70;;
36211;SDS011;22247;48.586;13.492;2023-07-22T09:13:38;3.88;;;1.70;;
36211;SDS011;22247;48.586;13.492;2023-07-22T09:16:04;3.50;;;2.00;;
36211;SDS011;22247;48.586;13.492;2023-07-22T09:18:32;6.50;;;2.25;;
36211;SDS011;22247;48.586;13.492;2023-07-22T09:20:57;3.25;;;1.85;;
36211;SDS011;22247;48.586;13.492;2023-07-22T09:23:35;3.97;;;1.45;;
36211;SDS011;22247;48.586;13.492;2023-07-22T09:31:16;2.63;;;1.80;;
36211;SDS011;22247;48.586;13.492;2023-07-22T09:33:41;3.75;;;1.70;;
36211;SDS011;22247;48.586;13.492;2023-07-22T09:36:06;2.53;;;1.42;;
36211;SDS011;22247;48.586;13.492;2023-07-22T09:38:31;5.90;;;1.75;;
36211;SDS011;22247;48.586;13.492;2023-07-22T09:40:56;8.00;;;1.85;;
36211;SDS011;22247;48.586;13.492;2023-07-22T09:43:22;4.28;;;1.92;;
36211;SDS011;22247;48.586;13.492;2023-07-22T09:45:48;4.82;;;1.50;;
36211;SDS011;22247;48.586;13.492;2023-07-22T09:48:13;2.60;;;1.50;;
36211;SDS011;22247;48.586;13.492;2023-07-22T09:50:38;7.57;;;1.80;;
36211;SDS011;22247;48.586;13.492;2023-07-22T09:53:03;3.65;;;1.80;;
36211;SDS011;22247;48.586;13.492;2023-07-22T09:55:29;3.45;;;1.50;;
36211;SDS011;22247;48.586;13.492;2023-07-22T10:00:19;5.85;;;1.73;;
36211;SDS011;22247;48.586;13.492;2023-07-22T10:02:45;4.43;;;2.13;;
36211;SDS011;22247;48.586;13.492;2023-07-22T10:05:12;4.50;;;1.67;;
36211;SDS011;22247;48.586;13.492;2023-07-22T10:07:38;2.22;;;1.50;;
36211;SDS011;22247;48.586;13.492;2023-07-22T10:10:06;4.82;;;1.75;;
36211;SDS011;22247;48.586;13.492;2023-07-22T10:12:32;2.85;;;1.65;;
36211;SDS011;22247;48.586;13.492;2023-07-22T10:15:00;3.17;;;1.40;;
36211;SDS011;22247;48.586;13.492;2023-07-22T10:17:25;2.85;;;1.55;;
36211;SDS011;22247;48.586;13.492;2023-07-22T10:19:53;3.70;;;1.40;;
36211;SDS011;22247;48.586;13.492;2023-07-22T10:22:18;3.58;;;1.60;;
36211;SDS011;22247;48.586;13.492;2023-07-22T10:24:43;5.20;;;1.50;;
36211;SDS011;22247;48.586;13.492;2023-07-22T10:27:09;2.22;;;1.40;;
36211;SDS011;22247;48.586;13.492;2023-07-22T10:29:35;3.90;;;1.50;;
36211;SDS011;22247;48.586;13.492;2023-07-22T10:32:01;5.05;;;1.63;;
36211;SDS011;22247;48.586;13.492;2023-07-22T10:34:26;5.28;;;1.73;;
36211;SDS011;22247;48.586;13.492;2023-07-22T10:36:51;5.13;;;1.90;;
36211;SDS011;22247;48.586;13.492;2023-07-22T10:39:26;3.60;;;1.63;;
36211;SDS011;22247;48.586;13.492;2023-07-22T10:41:57;4.75;;;1.80;;
36211;SDS011;22247;48.586;13.492;2023-07-22T10:44:25;4.03;;;1.67;;
36211;SDS011;22247;48.586;13.492;2023-07-22T10:46:56;2.40;;;1.30;;
36211;SDS011;22247;48.586;13.492;2023-07-22T10:49:21;3.60;;;1.60;;
36211;SDS011;22247;48.586;13.492;2023-07-22T10:51:50;2.53;;;1.60;;
36211;SDS011;22247;48.586;13.492;2023-07-22T10:54:31;4.13;;;1.40;;
36211;SDS011;22247;48.586;13.492;2023-07-22T10:57:02;3.47;;;1.90;;
36211;SDS011;22247;48.586;13.492;2023-07-22T10:59:32;2.83;;;1.58;;
36211;SDS011;22247;48.586;13.492;2023-07-22T11:01:59;6.60;;;1.80;;
36211;SDS011;22247;48.586;13.492;2023-07-22T11:04:25;5.10;;;2.25;;
36211;SDS011;22247;48.586;13.492;2023-07-22T11:11:53;6.22;;;2.00;;
36211;SDS011;22247;48.586;13.492;2023-07-22T11:14:22;2.25;;;1.45;;
36211;SDS011;22247;48.586;13.492;2023-07-22T11:16:48;5.25;;;1.92;;
36211;SDS011;22247;48.586;13.492;2023-07-22T11:19:14;4.15;;;1.60;;
36211;SDS011;22247;48.586;13.492;2023-07-22T11:21:42;6.18;;;1.98;;
36211;SDS011;22247;48.586;13.492;2023-07-22T11:24:07;2.58;;;1.75;;
36211;SDS011;22247;48.586;13.492;2023-07-22T11:26:33;2.65;;;1.58;;
36211;SDS011;22247;48.586;13.492;2023-07-22T11:28:59;3.50;;;1.60;;
36211;SDS011;22247;48.586;13.492;2023-07-22T11:31:32;2.97;;;1.70;;
36211;SDS011;22247;48.586;13.492;2023-07-22T11:33:57;2.53;;;1.50;;
36211;SDS011;22247;48.586;13.492;2023-07-22T11:36:22;2.50;;;1.65;;
36211;SDS011;22247;48.586;13.492;2023-07-22T11:38:47;2.35;;;1.80;;
36211;SDS011;22247;48.586;13.492;2023-07-22T11:41:15;3.20;;;2.00;;
36211;SDS011;22247;48.586;13.492;2023-07-22T11:43:40;3.35;;;1.88;;
36211;SDS011;22247;48.586;13.492;2023-07-22T11:46:07;3.03;;;1.83;;
36211;SDS011;22247;48.586;13.492;2023-07-22T11:48:32;5.47;;;1.90;;
36211;SDS011;22247;48.586;13.492;2023-07-22T11:51:00;3.15;;;1.60;;
36211;SDS011;22247;48.586;13.492;2023-07-22T11:53:27;3.25;;;1.77;;
36211;SDS011;22247;48.586;13.492;2023-07-22T11:55:54;2.30;;;1.58;;
36211;SDS011;22247;48.586;13.492;2023-07-22T11:58:28;3.00;;;1.48;;
36211;SDS011;22247;48.586;13.492;2023-07-22T12:01:03;2.60;;;1.75;;
36211;SDS011;22247;48.586;13.492;2023-07-22T12:05:55;2.05;;;1.30;;
36211;SDS011;22247;48.586;13.492;2023-07-22T12:08:22;2.70;;;1.55;;
36211;SDS011;22247;48.586;13.492;2023-07-22T12:10:55;6.05;;;1.40;;
36211;SDS011;22247;48.586;13.492;2023-07-22T12:13:20;4.88;;;1.70;;
36211;SDS011;22247;48.586;13.492;2023-07-22T12:15:58;2.38;;;1.90;;
36211;SDS011;22247;48.586;13.492;2023-07-22T12:18:24;3.45;;;1.48;;
36211;SDS011;22247;48.586;13.492;2023-07-22T12:20:49;3.42;;;1.70;;
36211;SDS011;22247;48.586;13.492;2023-07-22T12:23:14;4.95;;;1.73;;
36211;SDS011;22247;48.586;13.492;2023-07-22T12:25:39;4.10;;;1.50;;
36211;SDS011;22247;48.586;13.492;2023-07-22T12:28:04;2.08;;;1.50;;
36211;SDS011;22247;48.586;13.492;2023-07-22T12:30:30;2.53;;;1.60;;
36211;SDS011;22247;48.586;13.492;2023-07-22T12:32:55;3.78;;;1.83;;
36211;SDS011;22247;48.586;13.492;2023-07-22T12:35:20;3.03;;;1.85;;
36211;SDS011;22247;48.586;13.492;2023-07-22T12:37:47;8.32;;;1.70;;
36211;SDS011;22247;48.586;13.492;2023-07-22T12:40:13;2.72;;;1.70;;
36211;SDS011;22247;48.586;13.492;2023-07-22T12:42:38;2.30;;;1.40;;
36211;SDS011;22247;48.586;13.492;2023-07-22T12:45:04;3.65;;;1.67;;
36211;SDS011;22247;48.586;13.492;2023-07-22T12:47:29;2.25;;;1.27;;
36211;SDS011;22247;48.586;13.492;2023-07-22T12:49:57;1.95;;;1.40;;
36211;SDS011;22247;48.586;13.492;2023-07-22T12:52:22;1.92;;;1.50;;
36211;SDS011;22247;48.586;13.492;2023-07-22T12:54:47;2.72;;;1.70;;
36211;SDS011;22247;48.586;13.492;2023-07-22T12:57:12;2.45;;;1.80;;
36211;SDS011;22247;48.586;13.492;2023-07-22T12:59:37;2.65;;;1.70;;
36211;SDS011;22247;48.586;13.492;2023-07-22T13:02:02;2.30;;;1.50;;
36211;SDS011;22247;48.586;13.492;2023-07-22T13:04:27;3.25;;;1.80;;
36211;SDS011;22247;48.586;13.492;2023-07-22T13:06:52;4.05;;;2.13;;
36211;SDS011;22247;48.586;13.492;2023-07-22T13:09:20;4.68;;;2.70;;
36211;SDS011;22247;48.586;13.492;2023-07-22T13:11:45;2.33;;;1.60;;
36211;SDS011;22247;48.586;13.492;2023-07-22T13:14:10;4.80;;;1.80;;
36211;SDS011;22247;48.586;13.492;2023-07-22T13:16:35;6.80;;;2.00;;
36211;SDS011;22247;48.586;13.492;2023-07-22T13:19:02;4.47;;;1.60;;
36211;SDS011;22247;48.586;13.492;2023-07-22T13:21:27;4.32;;;1.63;;
36211;SDS011;22247;48.586;13.492;2023-07-22T13:23:52;2.22;;;1.27;;
36211;SDS011;22247;48.586;13.492;2023-07-22T13:26:17;8.05;;;2.17;;
36211;SDS011;22247;48.586;13.492;2023-07-22T13:28:42;2.55;;;1.60;;
36211;SDS011;22247;48.586;13.492;2023-07-22T13:31:08;7.22;;;1.85;;
36211;SDS011;22247;48.586;13.492;2023-07-22T13:33:33;2.55;;;1.77;;
36211;SDS011;22247;48.586;13.492;2023-07-22T13:35:58;4.78;;;1.90;;
36211;SDS011;22247;48.586;13.492;2023-07-22T13:38:23;8.25;;;3.25;;
36211;SDS011;22247;48.586;13.492;2023-07-22T13:40:48;8.25;;;1.73;;
36211;SDS011;22247;48.586;13.492;2023-07-22T13:43:13;2.22;;;1.70;;
36211;SDS011;22247;48.586;13.492;2023-07-22T13:45:39;11.75;;;1.80;;
36211;SDS011;22247;48.586;13.492;2023-07-22T13:48:04;2.92;;;1.50;;
36211;SDS011;22247;48.586;13.492;2023-07-22T13:50:29;7.47;;;1.67;;
36211;SDS011;22247;48.586;13.492;2023-07-22T13:52:57;4.20;;;1.92;;
36211;SDS011;22247;48.586;13.492;2023-07-22T13:55:22;2.63;;;1.67;;
36211;SDS011;22247;48.586;13.492;2023-07-22T13:57:47;4.65;;;1.83;;
36211;SDS011;22247;48.586;13.492;2023-07-22T14:00:12;3.85;;;1.50;;
36211;SDS011;22247;48.586;13.492;2023-07-22T14:02:38;3.33;;;1.77;;
36211;SDS011;22247;48.586;13.492;2023-07-22T14:05:03;3.40;;;1.42;;
36211;SDS011;22247;48.586;13.492;2023-07-22T14:07:28;2.20;;;1.60;;
36211;SDS011;22247;48.586;13.492;2023-07-22T14:09:53;3.05;;;1.67;;
36211;SDS011;22247;48.586;13.492;2023-07-22T14:12:18;3.80;;;1.75;;
36211;SDS011;22247;48.586;13.492;2023-07-22T14:14:43;5.45;;;2.00;;
36211;SDS011;22247;48.586;13.492;2023-07-22T14:17:11;4.93;;;2.10;;
36211;SDS011;22247;48.586;13.492;2023-07-22T14:19:38;5.05;;;1.67;;
36211;SDS011;22247;48.586;13.492;2023-07-22T14:22:03;3.30;;;1.65;;
36211;SDS011;22247;48.586;13.492;2023-07-22T14:24:29;3.60;;;1.98;;
36211;SDS011;22247;48.586;13.492;2023-07-22T14:26:54;4.07;;;1.83;;
36211;SDS011;22247;48.586;13.492;2023-07-22T14:29:18;4.38;;;1.80;;
36211;SDS011;22247;48.586;13.492;2023-07-22T14:31:44;3.88;;;1.40;;
36211;SDS011;22247;48.586;13.492;2023-07-22T14:34:09;4.68;;;1.58;;
36211;SDS011;22247;48.586;13.492;2023-07-22T14:36:36;5.57;;;1.60;;
36211;SDS011;22247;48.586;13.492;2023-07-22T14:39:03;3.92;;;1.60;;
36211;SDS011;22247;48.586;13.492;2023-07-22T14:41:30;5.78;;;1.83;;
36211;SDS011;22247;48.586;13.492;2023-07-22T14:43:55;2.13;;;1.50;;
36211;SDS011;22247;48.586;13.492;2023-07-22T14:46:23;2.60;;;1.50;;
36211;SDS011;22247;48.586;13.492;2023-07-22T14:48:48;4.80;;;1.70;;
36211;SDS011;22247;48.586;13.492;2023-07-22T14:51:13;3.92;;;1.48;;
36211;SDS011;22247;48.586;13.492;2023-07-22T14:53:38;4.97;;;1.85;;
36211;SDS011;22247;48.586;13.492;2023-07-22T14:56:03;3.58;;;1.85;;
36211;SDS011;22247;48.586;13.492;2023-07-22T14:58:32;2.80;;;1.70;;
36211;SDS011;22247;48.586;13.492;2023-07-22T15:00:58;2.00;;;1.50;;
36211;SDS011;22247;48.586;13.492;2023-07-22T15:03:25;4.97;;;2.00;;
36211;SDS011;22247;48.586;13.492;2023-07-22T15:05:50;3.30;;;1.85;;
36211;SDS011;22247;48.586;13.492;2023-07-22T15:08:17;3.50;;;1.60;;
36211;SDS011;22247;48.586;13.492;2023-07-22T15:10:42;2.10;;;1.50;;
36211;SDS011;22247;48.586;13.492;2023-07-22T15:13:07;4.15;;;1.83;;
36211;SDS011;22247;48.586;13.492;2023-07-22T15:15:32;4.78;;;1.83;;
36211;SDS011;22247;48.586;13.492;2023-07-22T15:17:57;4.85;;;1.92;;
36211;SDS011;22247;48.586;13.492;2023-07-22T15:20:25;2.17;;;1.67;;
36211;SDS011;22247;48.586;13.492;2023-07-22T15:22:50;2.38;;;1.50;;
36211;SDS011;22247;48.586;13.492;2023-07-22T15:25:15;6.38;;;1.58;;
36211;SDS011;22247;48.586;13.492;2023-07-22T15:27:40;3.40;;;1.98;;
36211;SDS011;22247;48.586;13.492;2023-07-22T15:30:06;4.72;;;1.65;;
36211;SDS011;22247;48.586;13.492;2023-07-22T15:32:31;2.78;;;1.55;;
36211;SDS011;22247;48.586;13.492;2023-07-22T15:34:56;2.92;;;1.60;;
36211;SDS011;22247;48.586;13.492;2023-07-22T15:37:22;3.55;;;2.08;;
36211;SDS011;22247;48.586;13.492;2023-07-22T15:39:47;4.72;;;2.10;;
36211;SDS011;22247;48.586;13.492;2023-07-22T15:42:12;3.38;;;1.70;;
36211;SDS011;22247;48.586;13.492;2023-07-22T15:44:37;3.25;;;1.73;;
36211;SDS011;22247;48.586;13.492;2023-07-22T15:47:04;6.10;;;1.80;;
36211;SDS011;22247;48.586;13.492;2023-07-22T15:49:29;1.95;;;1.73;;
36211;SDS011;22247;48.586;13.492;2023-07-22T15:51:54;2.22;;;1.73;;
36211;SDS011;22247;48.586;13.492;2023-07-22T15:54:19;4.70;;;1.80;;
36211;SDS011;22247;48.586;13.492;2023-07-22T15:56:45;5.40;;;1.80;;
36211;SDS011;22247;48.586;13.492;2023-07-22T15:59:10;2.70;;;1.70;;
36211;SDS011;22247;48.586;13.492;2023-07-22T16:01:35;4.03;;;1.90;;
36211;SDS011;22247;48.586;13.492;2023-07-22T16:04:00;5.63;;;1.80;;
36211;SDS011;22247;48.586;13.492;2023-07-22T16:06:27;3.50;;;1.42;;
36211;SDS011;22247;48.586;13.492;2023-07-22T16:08:53;6.13;;;1.63;;
36211;SDS011;22247;48.586;13.492;2023-07-22T16:11:18;5.70;;;1.88;;
36211;SDS011;22247;48.586;13.492;2023-07-22T16:13:43;4.10;;;1.83;;
36211;SDS011;22247;48.586;13.492;2023-07-22T16:16:11;2.53;;;1.70;;
36211;SDS011;22247;48.586;13.492;2023-07-22T16:18:36;3.22;;;1.80;;
36211;SDS011;22247;48.586;13.492;2023-07-22T16:21:01;2.25;;;1.50;;
36211;SDS011;22247;48.586;13.492;2023-07-22T16:23:26;5.22;;;1.58;;
36211;SDS011;22247;48.586;13.492;2023-07-22T16:25:51;6.65;;;1.63;;
36211;SDS011;22247;48.586;13.492;2023-07-22T16:28:16;3.78;;;1.67;;
36211;SDS011;22247;48.586;13.492;2023-07-22T16:30:41;3.90;;;2.17;;
36211;SDS011;22247;48.586;13.492;2023-07-22T16:33:09;4.15;;;1.90;;
36211;SDS011;22247;48.586;13.492;2023-07-22T16:35:34;3.03;;;1.83;;
36211;SDS011;22247;48.586;13.492;2023-07-22T16:37:59;3.38;;;2.15;;
36211;SDS011;22247;48.586;13.492;2023-07-22T16:40:24;4.90;;;2.28;;
36211;SDS011;22247;48.586;13.492;2023-07-22T16:42:49;6.38;;;3.53;;
36211;SDS011;22247;48.586;13.492;2023-07-22T16:45:14;8.38;;;4.53;;
36211;SDS011;22247;48.586;13.492;2023-07-22T16:47:39;4.80;;;2.13;;